Time;durP1;ratioP1;P1;durP2;ratioP2;P2;SDS_P1;SDS_P2;PMS_P1;PMS_P2;Temp;Humidity;BMP_temperature;BMP_pressure;BME280_temperature;BME280_humidity;BME280_pressure;Samples;Min_cycle;Max_cycle;Signal;HPM_P1;HPM_P2
2022/05/25 00:01:42;;;;;;;1.57;1.30;;;20.00;48.10;;;;;;5087793;28;20827;-89
2022/05/25 00:04:10;;;;;;;1.50;1.40;;;20.00;48.20;;;;;;5061855;28;20459;-88
2022/05/25 00:06:37;;;;;;;1.90;1.80;;;19.40;48.40;;;;;;5059730;28;20833;-88
2022/05/25 00:09:04;;;;;;;3.93;2.63;;;19.30;49.40;;;;;;5074661;28;20446;-88
2022/05/25 00:11:31;;;;;;;1.77;1.50;;;19.40;49.10;;;;;;5079573;28;20451;-89
2022/05/25 00:13:59;;;;;;;1.70;1.60;;;19.50;49.10;;;;;;5096239;28;20443;-88
2022/05/25 00:16:26;;;;;;;2.07;1.87;;;19.60;48.70;;;;;;5090526;28;20475;-90
2022/05/25 00:21:38;;;;;;;1.43;1.33;;;19.70;48.20;;;;;;5078328;28;20450;-89
2022/05/25 00:24:05;;;;;;;1.70;1.60;;;19.70;48.40;;;;;;5062733;28;20459;-89
2022/05/25 00:26:33;;;;;;;1.70;1.50;;;19.70;49.20;;;;;;5079530;28;20459;-90
2022/05/25 00:29:02;;;;;;;1.57;1.47;;;19.70;49.50;;;;;;5066259;28;20435;-89
2022/05/25 00:31:30;;;;;;;3.43;1.97;;;19.70;49.50;;;;;;5073657;28;20439;-89
2022/05/25 00:33:58;;;;;;;1.53;1.43;;;19.80;49.50;;;;;;5057099;28;20450;-88
2022/05/25 00:36:25;;;;;;;1.77;1.67;;;19.80;49.50;;;;;;5066742;28;20552;-89
2022/05/25 00:38:52;;;;;;;1.90;1.80;;;19.80;49.60;;;;;;5058491;28;20435;-89
2022/05/25 00:41:23;;;;;;;2.03;1.70;;;19.80;49.40;;;;;;5056326;28;20974;-88
2022/05/25 00:43:50;;;;;;;2.47;2.27;;;19.80;49.60;;;;;;5060679;28;20539;-91
2022/05/25 00:46:20;;;;;;;3.00;1.43;;;19.80;49.70;;;;;;5092142;28;20478;-88
2022/05/25 00:48:51;;;;;;;2.07;1.77;;;19.70;49.50;;;;;;5093629;28;20475;-89
2022/05/25 00:51:24;;;;;;;1.70;1.60;;;19.70;49.60;;;;;;5072551;28;20448;-88
2022/05/25 00:53:57;;;;;;;1.90;1.80;;;19.70;49.90;;;;;;5050329;28;20448;-89
2022/05/25 00:56:26;;;;;;;1.70;1.60;;;19.60;49.90;;;;;;5080576;28;20553;-89
2022/05/25 00:58:58;;;;;;;3.40;1.70;;;19.60;50.00;;;;;;5067076;28;20461;-89
2022/05/25 01:01:28;;;;;;;2.70;2.00;;;19.60;50.00;;;;;;5065939;28;20799;-89
2022/05/25 01:03:55;;;;;;;2.70;1.90;;;19.60;50.00;;;;;;5059432;28;20456;-87
2022/05/25 01:06:39;;;;;;;1.73;1.63;;;19.60;50.10;;;;;;5076226;28;20492;-89
2022/05/25 01:09:16;;;;;;;2.00;1.80;;;19.50;50.00;;;;;;5060674;28;20454;-90
2022/05/25 01:11:55;;;;;;;2.07;1.87;;;19.50;49.90;;;;;;5077634;28;20447;-89
2022/05/25 01:14:38;;;;;;;1.80;1.70;;;19.50;50.50;;;;;;5082902;28;20451;-90
2022/05/25 01:17:20;;;;;;;1.80;1.60;;;19.50;49.80;;;;;;5072480;28;20477;-88
2022/05/25 01:20:11;;;;;;;1.90;1.80;;;19.50;49.70;;;;;;5092003;28;20443;-90
2022/05/25 01:23:14;;;;;;;3.57;1.87;;;19.40;49.90;;;;;;5090558;28;20475;-89
2022/05/25 01:26:12;;;;;;;2.00;1.90;;;19.40;50.00;;;;;;5073323;28;20458;-88
2022/05/25 01:28:56;;;;;;;4.20;1.67;;;19.30;49.90;;;;;;5065298;28;20439;-89
2022/05/25 01:31:31;;;;;;;1.70;1.60;;;19.30;50.20;;;;;;5073787;28;20443;-89
2022/05/25 01:34:04;;;;;;;2.03;1.93;;;19.30;50.30;;;;;;5041597;28;20828;-88
2022/05/25 01:36:39;;;;;;;9.80;1.87;;;19.30;50.20;;;;;;5076732;28;20498;-91
2022/05/25 01:39:10;;;;;;;1.90;1.80;;;19.30;50.30;;;;;;5083825;28;20779;-88
2022/05/25 01:41:43;;;;;;;5.93;1.90;;;19.30;51.00;;;;;;5066747;28;20500;-89
2022/05/25 01:44:14;;;;;;;1.90;1.80;;;19.20;50.40;;;;;;5074936;28;20496;-87
2022/05/25 01:46:47;;;;;;;2.07;1.67;;;19.20;50.60;;;;;;5075182;28;21295;-89
2022/05/25 01:49:17;;;;;;;2.83;1.77;;;19.20;50.70;;;;;;5056386;28;21036;-89
2022/05/25 01:51:48;;;;;;;2.10;1.90;;;19.10;50.60;;;;;;5083159;28;20444;-89
2022/05/25 01:54:20;;;;;;;2.50;2.30;;;19.20;50.50;;;;;;5093448;28;20455;-89
2022/05/25 01:56:50;;;;;;;2.67;2.20;;;19.10;50.70;;;;;;5072843;28;20451;-89
2022/05/25 01:59:20;;;;;;;2.30;1.80;;;19.10;50.80;;;;;;5063274;28;20481;-88
2022/05/25 02:04:19;;;;;;;1.97;1.80;;;19.10;50.90;;;;;;5057782;28;20459;-88
2022/05/25 02:04:42;;;;;;;2.70;1.70;;;19.10;50.80;;;;;;5073274;28;20461;-89
2022/05/25 02:07:21;;;;;;;2.10;1.90;;;19.10;50.90;;;;;;5093099;28;20487;-88
2022/05/25 02:10:24;;;;;;;1.93;1.80;;;19.10;50.90;;;;;;5073002;28;20436;-90
2022/05/25 02:13:05;;;;;;;1.70;1.60;;;19.10;51.00;;;;;;5056169;28;20467;-89
2022/05/25 02:15:41;;;;;;;2.20;1.93;;;19.10;51.00;;;;;;5071567;28;20530;-91
2022/05/25 02:18:13;;;;;;;2.30;2.13;;;19.00;50.90;;;;;;5082799;28;21141;-89
2022/05/25 02:20:48;;;;;;;3.30;1.77;;;19.00;51.20;;;;;;5071220;28;20802;-88
2022/05/25 02:23:20;;;;;;;1.70;1.60;;;19.00;51.30;;;;;;5092665;28;20447;-89
2022/05/25 02:25:51;;;;;;;2.23;1.83;;;19.00;51.20;;;;;;5072745;28;20561;-89
2022/05/25 02:28:24;;;;;;;2.27;1.93;;;18.90;51.30;;;;;;5066305;28;20430;-88
2022/05/25 02:30:54;;;;;;;1.83;1.60;;;18.90;51.20;;;;;;5073119;28;20480;-89
2022/05/25 02:33:28;;;;;;;3.77;1.63;;;18.90;51.30;;;;;;5061025;28;20443;-89
2022/05/25 02:35:57;;;;;;;1.70;1.60;;;18.90;51.20;;;;;;5062037;28;21237;-88
2022/05/25 02:38:24;;;;;;;2.60;1.70;;;18.90;51.50;;;;;;5091139;28;20854;-88
2022/05/25 02:40:51;;;;;;;1.87;1.53;;;18.80;51.40;;;;;;5060593;28;20450;-90
2022/05/25 02:43:18;;;;;;;1.90;1.80;;;18.80;51.20;;;;;;5079582;28;20446;-88
2022/05/25 02:45:46;;;;;;;3.73;1.60;;;18.80;51.20;;;;;;5055526;28;20467;-88
2022/05/25 02:48:13;;;;;;;6.27;2.10;;;18.90;51.40;;;;;;5063552;28;20448;-89
2022/05/25 02:50:41;;;;;;;1.90;1.80;;;18.80;51.30;;;;;;5058917;28;20452;-89
2022/05/25 02:53:11;;;;;;;7.30;2.37;;;18.80;51.10;;;;;;5063824;28;21002;-88
2022/05/25 02:55:38;;;;;;;2.00;1.80;;;18.80;51.10;;;;;;5090309;28;20930;-88
2022/05/25 02:58:06;;;;;;;4.67;1.70;;;18.90;51.20;;;;;;5055900;28;20471;-88
2022/05/25 03:00:33;;;;;;;1.77;1.67;;;18.80;51.20;;;;;;5060492;28;20499;-89
2022/05/25 03:02:59;;;;;;;4.90;1.80;;;18.80;51.20;;;;;;5049881;28;20450;-88
2022/05/25 03:05:26;;;;;;;3.87;2.03;;;18.80;51.20;;;;;;5058947;28;20550;-89
2022/05/25 03:07:55;;;;;;;2.00;1.80;;;18.80;51.40;;;;;;5072390;28;20449;-89
2022/05/25 03:10:22;;;;;;;3.43;2.17;;;18.80;51.20;;;;;;5091347;28;21295;-88
2022/05/25 03:12:49;;;;;;;3.03;2.20;;;18.80;51.30;;;;;;5082385;28;20444;-88
2022/05/25 03:15:20;;;;;;;2.13;1.80;;;18.80;51.90;;;;;;5057799;28;21619;-88
2022/05/25 03:17:47;;;;;;;2.20;2.00;;;18.70;51.20;;;;;;5072069;28;21385;-89
2022/05/25 03:20:15;;;;;;;2.47;1.50;;;18.70;51.20;;;;;;5071147;28;20444;-89
2022/05/25 03:22:44;;;;;;;3.30;1.90;;;18.60;51.20;;;;;;5072331;28;20455;-89
2022/05/25 03:25:13;;;;;;;1.90;1.50;;;18.60;51.10;;;;;;5054569;28;20451;-89
2022/05/25 03:27:40;;;;;;;2.67;1.60;;;18.60;50.90;;;;;;5055114;28;20879;-89
2022/05/25 03:30:09;;;;;;;1.73;1.60;;;18.60;51.00;;;;;;5064835;28;21065;-88
2022/05/25 03:32:36;;;;;;;2.07;1.83;;;18.70;50.90;;;;;;5071434;28;20455;-87
2022/05/25 03:35:04;;;;;;;2.20;2.00;;;18.60;50.90;;;;;;5079818;28;20451;-90
2022/05/25 03:37:31;;;;;;;2.47;1.80;;;18.60;51.00;;;;;;5050187;28;20504;-90
2022/05/25 03:39:58;;;;;;;2.00;1.80;;;18.60;50.90;;;;;;5061832;28;20447;-87
2022/05/25 03:42:26;;;;;;;2.23;1.40;;;18.60;50.80;;;;;;5069222;28;21020;-89
2022/05/25 03:44:53;;;;;;;1.77;1.67;;;18.60;50.90;;;;;;5067261;28;20513;-90
2022/05/25 03:47:20;;;;;;;5.83;1.80;;;18.60;51.00;;;;;;5060105;28;21041;-89
2022/05/25 03:49:47;;;;;;;1.90;1.70;;;18.50;51.10;;;;;;5060807;28;20443;-89
2022/05/25 03:52:14;;;;;;;2.50;1.70;;;18.50;51.40;;;;;;5072869;28;20455;-90
2022/05/25 03:54:41;;;;;;;1.60;1.50;;;18.50;51.40;;;;;;5085881;28;20452;-88
2022/05/25 03:57:08;;;;;;;1.97;1.87;;;18.50;51.60;;;;;;5084964;28;20969;-89
2022/05/25 03:59:36;;;;;;;2.63;1.70;;;18.40;51.80;;;;;;5066876;28;20941;-89
2022/05/25 04:02:04;;;;;;;4.80;2.10;;;18.40;51.80;;;;;;5094493;28;20440;-89
2022/05/25 04:04:31;;;;;;;2.87;1.97;;;18.40;51.80;;;;;;5077935;28;20830;-89
2022/05/25 04:06:58;;;;;;;3.40;1.60;;;18.40;51.60;;;;;;5083754;28;20488;-89
2022/05/25 04:09:25;;;;;;;1.87;1.50;;;18.40;51.70;;;;;;5086854;28;20851;-90
2022/05/25 04:11:52;;;;;;;2.40;2.20;;;18.40;51.70;;;;;;5069110;28;20957;-89
2022/05/25 04:14:19;;;;;;;3.40;2.03;;;18.50;51.90;;;;;;5071149;28;20451;-89
2022/05/25 04:16:49;;;;;;;1.67;1.57;;;18.40;52.60;;;;;;5074989;28;20459;-89
2022/05/25 04:19:16;;;;;;;1.97;1.87;;;18.40;52.10;;;;;;5077447;28;20450;-89
2022/05/25 04:21:44;;;;;;;2.07;1.97;;;18.40;52.00;;;;;;5093839;28;20478;-90
2022/05/25 04:24:12;;;;;;;3.90;2.00;;;18.40;52.20;;;;;;5096199;28;20979;-89
2022/05/25 04:26:40;;;;;;;1.97;1.83;;;18.40;52.10;;;;;;5062118;28;20527;-88
2022/05/25 04:29:07;;;;;;;2.53;1.60;;;18.40;52.60;;;;;;5075016;28;21146;-90
2022/05/25 04:31:34;;;;;;;2.97;1.73;;;18.40;52.30;;;;;;5066488;28;20444;-88
2022/05/25 04:34:03;;;;;;;1.77;1.67;;;18.40;52.50;;;;;;5054183;28;20482;-91
2022/05/25 04:36:30;;;;;;;2.30;2.13;;;18.40;52.10;;;;;;5051505;28;20456;-89
2022/05/25 04:38:57;;;;;;;2.00;1.80;;;18.40;52.30;;;;;;5079106;28;20475;-87
2022/05/25 04:41:24;;;;;;;2.07;1.83;;;18.50;52.40;;;;;;5088079;28;20839;-89
2022/05/25 04:43:51;;;;;;;2.17;1.97;;;18.50;52.20;;;;;;5079067;28;20446;-89
2022/05/25 04:46:18;;;;;;;2.83;2.00;;;18.60;52.50;;;;;;5056208;28;20828;-89
2022/05/25 04:48:45;;;;;;;3.50;3.20;;;18.60;52.40;;;;;;5062954;28;20592;-89
2022/05/25 04:51:14;;;;;;;1.60;1.50;;;18.60;52.00;;;;;;5047935;28;20448;-88
2022/05/25 04:53:42;;;;;;;2.67;1.80;;;18.60;52.00;;;;;;5068109;28;20959;-89
2022/05/25 04:58:53;;;;;;;3.43;2.10;;;18.60;51.90;;;;;;5060566;28;21147;-89
2022/05/25 05:01:20;;;;;;;6.13;2.90;;;18.60;51.90;;;;;;5097355;28;20472;-88
2022/05/25 05:03:47;;;;;;;3.37;2.30;;;18.60;51.70;;;;;;5066309;28;20710;-89
2022/05/25 05:06:16;;;;;;;2.87;2.10;;;18.60;51.90;;;;;;5067209;28;20486;-88
2022/05/25 05:08:43;;;;;;;1.93;1.80;;;18.60;51.70;;;;;;5079129;28;20959;-88
2022/05/25 05:11:12;;;;;;;3.77;2.17;;;18.60;51.80;;;;;;5092473;28;20463;-89
2022/05/25 05:13:40;;;;;;;2.30;2.10;;;18.60;51.80;;;;;;5075727;28;20483;-89
2022/05/25 05:16:10;;;;;;;2.00;1.90;;;18.60;52.10;;;;;;5077166;28;20841;-90
2022/05/25 05:18:37;;;;;;;3.57;2.00;;;18.70;52.30;;;;;;5076936;28;20482;-89
2022/05/25 05:21:23;;;;;;;2.20;1.93;;;18.70;52.10;;;;;;5086267;28;20444;-89
2022/05/25 05:23:50;;;;;;;2.90;1.80;;;18.70;52.20;;;;;;5051653;28;20848;-89
2022/05/25 05:26:17;;;;;;;4.20;1.70;;;18.60;52.20;;;;;;5079886;28;20475;-89
2022/05/25 05:28:45;;;;;;;3.47;2.20;;;18.60;52.60;;;;;;5067658;28;20454;-89
2022/05/25 05:31:14;;;;;;;2.23;2.13;;;18.60;52.50;;;;;;5079029;28;20856;-89
2022/05/25 05:33:41;;;;;;;3.10;2.20;;;18.60;52.90;;;;;;5078929;28;21037;-91
2022/05/25 05:36:13;;;;;;;3.17;2.40;;;18.60;52.90;;;;;;5077658;28;20463;-89
2022/05/25 05:38:45;;;;;;;3.27;2.00;;;18.70;52.60;;;;;;5077840;28;21076;-89
2022/05/25 05:41:13;;;;;;;2.80;2.40;;;18.70;52.80;;;;;;5075235;28;20461;-89
2022/05/25 05:43:41;;;;;;;3.30;1.93;;;18.60;53.30;;;;;;5062326;28;20489;-89
2022/05/25 05:46:09;;;;;;;2.33;2.13;;;18.60;53.20;;;;;;5062530;28;20467;-89
2022/05/25 05:48:38;;;;;;;3.40;2.10;;;18.70;53.10;;;;;;5066318;28;20435;-89
2022/05/25 05:51:06;;;;;;;4.50;2.70;;;18.60;53.20;;;;;;5079808;28;20946;-89
2022/05/25 05:53:34;;;;;;;3.93;2.47;;;18.50;53.40;;;;;;5077315;28;20677;-89
2022/05/25 05:56:03;;;;;;;4.70;2.63;;;18.50;53.80;;;;;;5095901;28;20840;-89
2022/05/25 05:58:30;;;;;;;6.40;2.60;;;18.60;53.60;;;;;;5079422;28;20455;-91
2022/05/25 06:00:57;;;;;;;3.13;2.67;;;18.40;53.60;;;;;;5065340;28;20457;-88
2022/05/25 06:03:24;;;;;;;2.77;2.43;;;18.20;53.90;;;;;;5065814;28;20444;-90
2022/05/25 06:05:51;;;;;;;3.77;2.93;;;18.20;54.00;;;;;;5099299;28;20479;-90
2022/05/25 06:08:21;;;;;;;3.40;2.57;;;18.30;54.50;;;;;;5067322;28;20438;-89
2022/05/25 06:10:48;;;;;;;5.33;3.00;;;18.40;53.90;;;;;;5051696;28;20465;-89
2022/05/25 06:13:17;;;;;;;7.27;3.80;;;18.40;53.70;;;;;;5068850;28;20451;-89
2022/05/25 06:21:18;;;;;;;5.63;3.20;;;18.60;53.50;;;;;;5080459;28;20439;-89
2022/05/25 06:23:45;;;;;;;4.27;3.83;;;18.60;53.10;;;;;;5064918;28;20451;-89
2022/05/25 06:26:14;;;;;;;3.60;3.30;;;18.80;53.20;;;;;;5065773;28;20563;-91
2022/05/25 06:28:43;;;;;;;4.03;3.73;;;19.00;52.60;;;;;;5076827;28;21258;-90
2022/05/25 06:31:10;;;;;;;5.67;3.10;;;19.10;52.50;;;;;;5060691;28;21032;-90
2022/05/25 06:33:38;;;;;;;3.07;2.77;;;19.20;52.60;;;;;;5066573;28;20428;-90
2022/05/25 06:36:14;;;;;;;3.07;2.87;;;19.70;52.10;;;;;;5061130;28;20463;-90
2022/05/25 06:38:41;;;;;;;3.43;2.80;;;19.90;50.40;;;;;;5078180;28;20549;-89
2022/05/25 06:41:08;;;;;;;2.63;2.43;;;19.90;50.40;;;;;;5077382;28;20447;-91
2022/05/25 06:43:35;;;;;;;2.80;2.17;;;19.80;50.40;;;;;;5083712;28;20557;-89
2022/05/25 06:46:04;;;;;;;3.83;1.83;;;19.60;50.00;;;;;;5042805;28;20481;-89
2022/05/25 06:48:31;;;;;;;1.93;1.73;;;19.60;49.30;;;;;;5098943;28;20966;-90
2022/05/25 06:50:58;;;;;;;2.03;1.87;;;19.40;49.50;;;;;;5060240;28;21048;-90
2022/05/25 06:53:25;;;;;;;2.60;2.13;;;19.50;49.90;;;;;;5058111;28;20525;-89
2022/05/25 06:55:52;;;;;;;2.53;1.93;;;19.50;49.30;;;;;;5066107;28;20455;-90
2022/05/25 06:58:19;;;;;;;2.30;2.10;;;19.60;49.90;;;;;;5093875;28;20835;-89
2022/05/25 07:00:46;;;;;;;8.10;2.17;;;19.80;49.50;;;;;;5073710;28;20477;-89
2022/05/25 07:03:15;;;;;;;2.87;1.90;;;20.10;49.40;;;;;;5100358;28;20459;-89
2022/05/25 07:05:42;;;;;;;1.70;1.60;;;20.20;47.90;;;;;;5081490;28;20484;-90
2022/05/25 07:08:09;;;;;;;2.93;1.57;;;20.40;48.00;;;;;;5100626;28;20448;-89
2022/05/25 07:10:36;;;;;;;3.10;1.60;;;20.50;48.40;;;;;;5067568;28;20508;-91
2022/05/25 07:13:03;;;;;;;3.30;2.10;;;20.60;48.40;;;;;;5081846;28;20441;-89
2022/05/25 07:15:30;;;;;;;1.97;1.60;;;20.80;47.60;;;;;;5080531;28;20483;-89
2022/05/25 07:17:57;;;;;;;2.13;1.63;;;20.90;48.40;;;;;;5075667;28;20564;-90
2022/05/25 07:20:25;;;;;;;1.73;1.30;;;21.10;46.70;;;;;;5059756;28;20444;-91
2022/05/25 07:22:52;;;;;;;2.43;1.37;;;21.50;46.60;;;;;;5074948;28;20522;-90
2022/05/25 07:25:19;;;;;;;1.50;1.40;;;21.60;45.90;;;;;;5064079;28;20443;-90
2022/05/25 07:27:46;;;;;;;3.10;1.40;;;21.60;45.70;;;;;;5075237;28;20530;-89
2022/05/25 07:30:16;;;;;;;3.07;1.57;;;21.80;44.90;;;;;;5072904;28;20971;-92
2022/05/25 07:32:43;;;;;;;2.47;1.40;;;21.90;43.90;;;;;;5062682;28;20451;-89
2022/05/25 07:35:12;;;;;;;1.70;1.60;;;22.20;43.90;;;;;;5076432;28;20554;-90
2022/05/25 07:37:42;;;;;;;2.60;1.30;;;22.10;43.20;;;;;;5097429;28;20507;-90
2022/05/25 07:40:14;;;;;;;1.50;1.30;;;21.80;42.20;;;;;;5076569;28;20573;-90
2022/05/25 07:42:45;;;;;;;2.53;1.30;;;22.00;42.60;;;;;;5076615;28;20865;-89
2022/05/25 07:45:12;;;;;;;1.70;1.33;;;22.10;42.80;;;;;;5082166;28;20485;-89
2022/05/25 07:47:39;;;;;;;1.20;1.07;;;22.10;42.50;;;;;;5075553;28;20472;-89
2022/05/25 07:50:08;;;;;;;2.87;1.70;;;22.30;43.20;;;;;;5074850;28;20487;-89
2022/05/25 07:52:39;;;;;;;1.47;1.10;;;22.50;42.20;;;;;;5065942;28;21014;-89
2022/05/25 07:55:11;;;;;;;3.13;1.30;;;22.60;41.60;;;;;;5060304;28;20448;-89
2022/05/25 07:57:38;;;;;;;2.53;1.20;;;22.70;40.80;;;;;;5049330;28;20983;-88
2022/05/25 08:00:07;;;;;;;1.50;1.10;;;22.70;40.50;;;;;;5094417;28;20566;-89
2022/05/25 08:08:16;;;;;;;4.13;1.00;;;23.00;39.40;;;;;;5062748;28;20994;-89
2022/05/25 08:10:49;;;;;;;1.70;1.07;;;23.00;38.50;;;;;;5088012;28;20923;-89
2022/05/25 08:13:17;;;;;;;5.97;1.07;;;23.00;38.20;;;;;;5092180;28;20454;-88
2022/05/25 08:15:45;;;;;;;1.40;1.30;;;23.10;38.00;;;;;;5057710;28;20460;-89
2022/05/25 08:18:12;;;;;;;1.90;1.40;;;23.10;38.10;;;;;;5089122;28;20521;-88
2022/05/25 08:20:39;;;;;;;2.10;1.10;;;23.20;36.70;;;;;;5079765;28;20455;-87
2022/05/25 08:23:09;;;;;;;1.30;1.20;;;23.30;38.10;;;;;;5073910;28;20990;-88
2022/05/25 08:25:36;;;;;;;1.93;1.50;;;23.10;36.90;;;;;;5092948;28;20454;-88
2022/05/25 08:28:06;;;;;;;1.00;0.90;;;23.30;38.10;;;;;;5059177;28;20485;-86
2022/05/25 08:30:35;;;;;;;1.20;1.10;;;23.70;37.60;;;;;;5083764;28;20447;-88
2022/05/25 08:33:01;;;;;;;2.47;1.13;;;23.70;36.40;;;;;;5079673;28;20451;-87
2022/05/25 08:35:30;;;;;;;2.17;1.00;;;24.00;37.20;;;;;;5076181;28;20447;-88
2022/05/25 08:37:58;;;;;;;1.20;0.97;;;24.20;37.50;;;;;;5078999;28;20487;-91
2022/05/25 08:40:27;;;;;;;1.80;1.17;;;24.20;36.00;;;;;;5063590;28;20444;-89
2022/05/25 08:42:57;;;;;;;6.80;1.20;;;24.00;35.90;;;;;;5075413;28;20444;-89
2022/05/25 08:45:35;;;;;;;1.10;1.00;;;24.00;35.90;;;;;;5060686;28;20469;-89
2022/05/25 08:48:05;;;;;;;3.53;1.43;;;24.10;35.10;;;;;;5082682;28;20533;-88
2022/05/25 08:50:33;;;;;;;4.27;1.27;;;24.20;35.60;;;;;;5067165;28;21035;-89
2022/05/25 08:53:02;;;;;;;1.30;1.20;;;24.30;35.10;;;;;;5078832;28;20439;-89
2022/05/25 08:55:44;;;;;;;1.00;0.90;;;24.10;34.00;;;;;;5057642;28;20550;-89
2022/05/25 08:58:13;;;;;;;1.23;1.00;;;23.90;35.50;;;;;;5097840;28;20509;-88
2022/05/25 09:00:43;;;;;;;2.67;1.03;;;23.80;34.00;;;;;;5095124;28;20440;-89
2022/05/25 09:03:22;;;;;;;1.20;1.10;;;24.00;35.10;;;;;;5093109;28;20459;-89
2022/05/25 09:05:54;;;;;;;2.50;1.10;;;24.20;35.40;;;;;;5080008;28;20572;-90
2022/05/25 09:08:27;;;;;;;4.63;1.20;;;24.30;35.40;;;;;;5077932;28;20459;-89
2022/05/25 09:10:59;;;;;;;1.77;1.07;;;24.40;35.40;;;;;;5059720;28;20460;-88
2022/05/25 09:13:33;;;;;;;2.53;1.27;;;24.30;33.50;;;;;;5084284;28;20442;-88
2022/05/25 09:16:17;;;;;;;1.20;1.10;;;24.50;35.40;;;;;;5066322;28;20475;-89
2022/05/25 09:18:50;;;;;;;2.30;1.23;;;24.80;35.00;;;;;;5099119;28;21100;-89
2022/05/25 09:21:23;;;;;;;1.43;1.13;;;24.40;34.10;;;;;;5100742;28;20538;-87
2022/05/25 09:23:52;;;;;;;3.33;1.00;;;24.10;34.20;;;;;;5064327;28;20455;-88
2022/05/25 09:26:19;;;;;;;2.80;1.20;;;23.80;35.20;;;;;;5064972;28;20558;-87
2022/05/25 09:28:53;;;;;;;0.97;0.87;;;23.70;36.30;;;;;;5056610;28;20472;-89
2022/05/25 09:31:27;;;;;;;6.33;1.23;;;23.80;36.80;;;;;;5077910;28;20516;-88
2022/05/25 09:34:00;;;;;;;1.10;1.00;;;24.20;37.20;;;;;;5062476;28;20444;-89
2022/05/25 09:36:32;;;;;;;2.00;1.13;;;24.80;35.90;;;;;;5079017;28;20468;-89
2022/05/25 09:39:04;;;;;;;2.80;1.00;;;25.30;34.30;;;;;;5050551;28;20459;-89
2022/05/25 09:41:32;;;;;;;2.63;1.20;;;25.20;33.50;;;;;;5052066;28;20497;-89
2022/05/25 09:44:01;;;;;;;1.20;1.00;;;25.30;33.60;;;;;;5100891;28;20512;-89
2022/05/25 09:46:35;;;;;;;1.10;1.00;;;25.50;34.60;;;;;;5078136;28;20497;-91
2022/05/25 09:49:05;;;;;;;2.97;1.00;;;25.50;34.20;;;;;;5082143;28;20447;-88
2022/05/25 09:51:35;;;;;;;2.13;1.30;;;25.80;34.40;;;;;;5051039;28;20531;-89
2022/05/25 09:54:06;;;;;;;2.83;1.57;;;25.90;32.50;;;;;;5058306;28;20950;-88
2022/05/25 09:56:38;;;;;;;1.23;1.00;;;25.70;32.30;;;;;;5052579;28;20473;-90
2022/05/25 09:59:07;;;;;;;1.77;1.07;;;25.90;33.80;;;;;;5058498;28;20554;-87
2022/05/25 10:01:43;;;;;;;1.30;1.10;;;26.00;32.10;;;;;;5060977;28;21015;-88
2022/05/25 10:04:11;;;;;;;4.17;1.30;;;26.30;32.10;;;;;;5051690;28;20454;-90
2022/05/25 10:06:49;;;;;;;1.40;1.07;;;26.50;31.50;;;;;;5079120;28;20485;-88
2022/05/25 10:09:20;;;;;;;2.60;1.00;;;26.50;31.50;;;;;;5065481;28;22153;-89
2022/05/25 10:11:49;;;;;;;4.57;1.10;;;26.20;31.70;;;;;;5081187;28;21182;-88
2022/05/25 10:14:25;;;;;;;1.40;1.00;;;26.10;31.00;;;;;;5093404;28;20833;-90
2022/05/25 10:16:56;;;;;;;5.13;1.00;;;25.90;31.70;;;;;;5078909;28;20674;-88
2022/05/25 10:19:23;;;;;;;1.60;1.30;;;25.80;31.30;;;;;;5066550;28;21285;-89
2022/05/25 10:21:52;;;;;;;2.07;1.00;;;26.00;32.10;;;;;;5096779;28;20455;-90
2022/05/25 10:24:25;;;;;;;2.00;0.80;;;26.30;31.40;;;;;;5058268;28;20439;-88
2022/05/25 10:26:56;;;;;;;1.00;0.90;;;26.30;29.80;;;;;;5068334;28;20479;-90
2022/05/25 10:38:23;;;;;;;1.30;1.03;;;26.80;29.70;;;;;;5091993;28;20538;-89
2022/05/25 10:40:50;;;;;;;1.20;1.10;;;26.30;30.40;;;;;;5091332;28;20466;-88
2022/05/25 10:43:23;;;;;;;1.50;1.10;;;26.20;30.80;;;;;;5077347;28;20439;-88
2022/05/25 10:45:52;;;;;;;1.63;1.00;;;25.80;30.00;;;;;;5091388;28;20599;-89
2022/05/25 10:48:41;;;;;;;2.80;1.10;;;25.70;31.30;;;;;;5064520;28;20450;-89
2022/05/25 10:51:13;;;;;;;3.00;1.10;;;25.30;31.80;;;;;;5093127;28;20534;-90
2022/05/25 10:54:44;;;;;;;4.83;1.13;;;25.10;31.00;;;;;;5060731;28;20534;-89
2022/05/25 10:56:45;;;;;;;0.97;0.87;;;25.10;32.30;;;;;;5076650;28;20532;-88
2022/05/25 10:59:20;;;;;;;4.23;1.00;;;25.20;32.50;;;;;;5071139;28;20844;-89
2022/05/25 11:02:02;;;;;;;3.47;1.00;;;25.40;32.30;;;;;;5074411;27;20545;-90
2022/05/25 11:04:52;;;;;;;1.73;0.90;;;25.80;31.30;;;;;;5075942;28;20439;-89
2022/05/25 11:07:32;;;;;;;1.37;0.97;;;25.80;31.40;;;;;;5077911;28;20482;-89
2022/05/25 11:10:13;;;;;;;7.07;1.30;;;25.90;31.40;;;;;;5072547;28;20459;-90
2022/05/25 11:12:49;;;;;;;1.47;1.17;;;25.70;30.10;;;;;;5069005;28;20538;-89
2022/05/25 11:15:24;;;;;;;2.20;1.03;;;25.80;30.90;;;;;;5069565;28;22710;-88
2022/05/25 11:18:02;;;;;;;1.17;1.00;;;26.20;30.60;;;;;;5044455;28;20454;-88
2022/05/25 11:20:38;;;;;;;3.10;1.10;;;25.90;30.50;;;;;;5089151;28;20560;-91
2022/05/25 11:23:37;;;;;;;0.90;0.80;;;25.60;31.20;;;;;;5092905;28;20511;-88
2022/05/25 11:26:18;;;;;;;2.47;0.93;;;25.70;30.70;;;;;;5090708;28;20993;-89
2022/05/25 11:28:53;;;;;;;1.00;0.90;;;25.90;30.20;;;;;;5048890;28;20438;-88
2022/05/25 11:31:29;;;;;;;1.20;1.10;;;25.80;30.10;;;;;;5072676;28;20449;-89
2022/05/25 11:34:14;;;;;;;1.80;1.03;;;26.00;31.00;;;;;;5084089;28;20862;-89
2022/05/25 11:37:00;;;;;;;1.17;0.97;;;26.00;30.10;;;;;;5061432;28;21200;-89
2022/05/25 11:39:38;;;;;;;6.20;1.00;;;25.90;31.80;;;;;;5077556;28;20490;-88
2022/05/25 11:42:15;;;;;;;1.67;1.00;;;25.80;30.20;;;;;;5050138;28;20484;-89
2022/05/25 11:45:08;;;;;;;1.53;1.00;;;25.40;32.40;;;;;;5075614;28;20451;-89
2022/05/25 11:47:56;;;;;;;1.77;1.10;;;25.40;31.10;;;;;;5063431;28;20463;-88
2022/05/25 11:50:36;;;;;;;2.53;1.20;;;25.60;31.40;;;;;;5073299;28;20981;-89
2022/05/25 11:53:38;;;;;;;2.47;1.20;;;25.90;31.10;;;;;;5076626;28;20440;-88
2022/05/25 11:56:30;;;;;;;1.00;0.90;;;26.20;31.20;;;;;;5061480;28;20484;-90
2022/05/25 11:59:10;;;;;;;1.53;1.30;;;26.30;30.00;;;;;;5075550;28;20962;-89
2022/05/25 12:01:44;;;;;;;1.33;0.90;;;26.60;30.10;;;;;;5076252;28;20942;-88
2022/05/25 12:04:53;;;;;;;2.17;1.57;;;26.40;27.80;;;;;;5073606;28;20436;-89
2022/05/25 12:07:36;;;;;;;1.10;1.00;;;26.50;30.70;;;;;;5094706;28;20482;-88
2022/05/25 12:10:27;;;;;;;1.20;1.10;;;27.10;28.80;;;;;;5044539;28;21022;-89
2022/05/25 12:12:58;;;;;;;1.20;1.10;;;27.30;29.00;;;;;;5068217;28;20451;-89
2022/05/25 12:15:30;;;;;;;1.20;1.10;;;27.30;27.80;;;;;;5064043;28;20444;-90
2022/05/25 12:18:10;;;;;;;1.17;1.07;;;27.00;28.70;;;;;;5051692;28;20454;-90
2022/05/25 12:20:41;;;;;;;1.90;1.10;;;26.30;28.90;;;;;;5059217;28;20463;-89
2022/05/25 12:23:15;;;;;;;1.00;0.90;;;26.20;30.20;;;;;;5053539;28;20449;-92
2022/05/25 12:25:52;;;;;;;1.20;0.90;;;26.10;30.00;;;;;;5046918;28;20442;-92
2022/05/25 12:28:19;;;;;;;2.93;1.00;;;26.00;31.00;;;;;;5080003;28;20843;-88
2022/05/25 12:30:47;;;;;;;1.43;0.93;;;26.00;29.50;;;;;;5079391;28;20758;-90
2022/05/25 12:33:21;;;;;;;1.87;0.97;;;26.20;29.80;;;;;;5065085;28;20467;-90
2022/05/25 12:35:49;;;;;;;2.00;1.07;;;26.30;30.00;;;;;;5077926;28;20539;-89
2022/05/25 12:38:18;;;;;;;1.00;0.90;;;26.30;29.50;;;;;;5096999;28;20454;-90
2022/05/25 12:40:48;;;;;;;1.10;1.00;;;26.70;30.00;;;;;;5058373;28;20958;-90
2022/05/25 12:43:51;;;;;;;2.10;1.00;;;26.70;29.00;;;;;;5069063;28;20443;-88
2022/05/25 12:49:35;;;;;;;2.97;1.10;;;27.10;28.80;;;;;;5067336;28;20765;-88
2022/05/25 12:52:23;;;;;;;8.67;1.10;;;27.10;27.80;;;;;;5076145;28;20451;-88
2022/05/25 12:54:52;;;;;;;1.60;0.80;;;27.40;29.10;;;;;;5065635;28;20501;-89
2022/05/25 12:57:24;;;;;;;1.23;0.87;;;27.80;28.50;;;;;;5079403;28;20475;-88
2022/05/25 12:59:51;;;;;;;3.27;0.90;;;27.70;27.90;;;;;;5056890;28;21028;-89
2022/05/25 13:02:27;;;;;;;4.03;1.10;;;27.40;28.00;;;;;;5074295;28;20486;-88
2022/05/25 13:04:55;;;;;;;1.70;1.00;;;27.60;28.10;;;;;;5080555;28;20943;-89
2022/05/25 13:07:41;;;;;;;2.23;1.07;;;27.50;26.70;;;;;;5058493;28;20486;-89
2022/05/25 13:10:19;;;;;;;8.23;1.20;;;27.10;27.40;;;;;;5073222;28;20475;-93
2022/05/25 13:12:50;;;;;;;2.03;0.90;;;27.30;28.80;;;;;;5062459;28;20475;-88
2022/05/25 13:15:38;;;;;;;1.47;1.10;;;27.30;28.10;;;;;;5077777;28;20483;-88
2022/05/25 13:18:07;;;;;;;2.33;1.00;;;26.70;27.90;;;;;;5061427;28;20440;-88
2022/05/25 13:20:59;;;;;;;3.40;1.20;;;27.00;28.50;;;;;;5083876;28;20467;-89
2022/05/25 13:24:04;;;;;;;1.70;1.00;;;27.00;27.60;;;;;;5072436;28;20447;-88
2022/05/25 13:27:10;;;;;;;1.37;1.03;;;26.60;28.40;;;;;;5097233;28;20574;-91
2022/05/25 13:29:52;;;;;;;1.87;1.20;;;26.70;28.50;;;;;;5011935;28;20443;-88
2022/05/25 13:32:39;;;;;;;1.10;1.00;;;26.50;29.00;;;;;;5079508;28;20478;-88
2022/05/25 13:35:35;;;;;;;3.07;0.90;;;26.50;29.70;;;;;;5075072;28;20448;-88
2022/05/25 13:38:11;;;;;;;2.87;1.10;;;26.60;30.80;;;;;;5098937;28;20430;-88
2022/05/25 13:40:42;;;;;;;1.33;1.00;;;26.70;29.30;;;;;;5075262;28;20459;-87
2022/05/25 13:43:14;;;;;;;1.43;1.00;;;26.60;29.30;;;;;;5070825;28;20462;-89